sensor_id;sensor_type;location;lat;lon;timestamp;P1;durP1;ratioP1;P2;durP2;ratioP2
29242;SDS011;21110;48.036;15.780;2023-02-26T00:00:12;3.05;;;2.30;;
29242;SDS011;21110;48.036;15.780;2023-02-26T00:02:42;2.50;;;2.30;;
29242;SDS011;21110;48.036;15.780;2023-02-26T00:07:36;2.20;;;2.00;;
29242;SDS011;21110;48.036;15.780;2023-02-26T00:10:03;2.17;;;2.08;;
29242;SDS011;21110;48.036;15.780;2023-02-26T00:12:30;2.95;;;2.15;;
29242;SDS011;21110;48.036;15.780;2023-02-26T00:14:56;2.30;;;2.20;;
29242;SDS011;21110;48.036;15.780;2023-02-26T00:20:05;4.82;;;2.05;;
29242;SDS011;21110;48.036;15.780;2023-02-26T00:22:33;2.38;;;2.17;;
29242;SDS011;21110;48.036;15.780;2023-02-26T00:24:58;2.30;;;2.20;;
29242;SDS011;21110;48.036;15.780;2023-02-26T00:27:24;2.25;;;2.15;;
29242;SDS011;21110;48.036;15.780;2023-02-26T00:29:50;2.80;;;2.60;;
29242;SDS011;21110;48.036;15.780;2023-02-26T00:32:16;2.42;;;2.25;;
29242;SDS011;21110;48.036;15.780;2023-02-26T00:34:43;2.70;;;2.50;;
29242;SDS011;21110;48.036;15.780;2023-02-26T00:37:22;2.20;;;2.10;;
29242;SDS011;21110;48.036;15.780;2023-02-26T00:42:47;2.90;;;2.70;;
29242;SDS011;21110;48.036;15.780;2023-02-26T00:45:13;6.13;;;2.70;;
29242;SDS011;21110;48.036;15.780;2023-02-26T00:50:27;3.10;;;2.85;;
29242;SDS011;21110;48.036;15.780;2023-02-26T00:55:46;2.92;;;2.72;;
29242;SDS011;21110;48.036;15.780;2023-02-26T00:58:11;4.07;;;2.47;;
29242;SDS011;21110;48.036;15.780;2023-02-26T01:00:37;3.35;;;2.65;;
29242;SDS011;21110;48.036;15.780;2023-02-26T01:03:03;2.88;;;2.67;;
29242;SDS011;21110;48.036;15.780;2023-02-26T01:05:29;2.90;;;2.70;;
29242;SDS011;21110;48.036;15.780;2023-02-26T01:08:07;4.80;;;2.78;;
29242;SDS011;21110;48.036;15.780;2023-02-26T01:10:42;2.70;;;2.50;;
29242;SDS011;21110;48.036;15.780;2023-02-26T01:13:08;4.85;;;2.50;;
29242;SDS011;21110;48.036;15.780;2023-02-26T01:15:33;2.60;;;2.40;;
29242;SDS011;21110;48.036;15.780;2023-02-26T01:18:17;9.48;;;2.67;;
29242;SDS011;21110;48.036;15.780;2023-02-26T01:20:50;4.13;;;2.53;;
29242;SDS011;21110;48.036;15.780;2023-02-26T01:23:22;4.22;;;2.72;;
29242;SDS011;21110;48.036;15.780;2023-02-26T01:25:54;3.30;;;2.90;;
29242;SDS011;21110;48.036;15.780;2023-02-26T01:28:23;5.65;;;3.05;;
29242;SDS011;21110;48.036;15.780;2023-02-26T01:30:50;3.35;;;2.45;;
29242;SDS011;21110;48.036;15.780;2023-02-26T01:33:34;2.35;;;2.25;;
29242;SDS011;21110;48.036;15.780;2023-02-26T01:36:21;2.78;;;2.55;;
29242;SDS011;21110;48.036;15.780;2023-02-26T01:41:50;2.80;;;2.60;;
29242;SDS011;21110;48.036;15.780;2023-02-26T01:47:05;2.90;;;2.60;;
29242;SDS011;21110;48.036;15.780;2023-02-26T01:49:41;4.97;;;2.40;;
29242;SDS011;21110;48.036;15.780;2023-02-26T01:55:10;3.17;;;2.47;;
29242;SDS011;21110;48.036;15.780;2023-02-26T01:57:36;2.88;;;2.40;;
29242;SDS011;21110;48.036;15.780;2023-02-26T02:00:02;2.47;;;2.38;;
29242;SDS011;21110;48.036;15.780;2023-02-26T02:02:29;2.50;;;2.30;;
29242;SDS011;21110;48.036;15.780;2023-02-26T02:04:55;2.65;;;2.45;;
29242;SDS011;21110;48.036;15.780;2023-02-26T02:07:22;2.58;;;2.38;;
29242;SDS011;21110;48.036;15.780;2023-02-26T02:09:48;2.35;;;2.25;;
29242;SDS011;21110;48.036;15.780;2023-02-26T02:17:31;4.75;;;2.40;;
29242;SDS011;21110;48.036;15.780;2023-02-26T02:23:11;2.80;;;2.50;;
29242;SDS011;21110;48.036;15.780;2023-02-26T02:33:37;10.20;;;2.28;;
29242;SDS011;21110;48.036;15.780;2023-02-26T02:36:16;5.43;;;2.42;;
29242;SDS011;21110;48.036;15.780;2023-02-26T02:38:51;4.00;;;2.10;;
29242;SDS011;21110;48.036;15.780;2023-02-26T02:41:23;3.85;;;2.10;;
29242;SDS011;21110;48.036;15.780;2023-02-26T02:43:54;2.45;;;2.00;;
29242;SDS011;21110;48.036;15.780;2023-02-26T02:46:24;3.53;;;2.33;;
29242;SDS011;21110;48.036;15.780;2023-02-26T02:49:01;2.40;;;2.20;;
29242;SDS011;21110;48.036;15.780;2023-02-26T02:51:40;2.38;;;2.13;;
29242;SDS011;21110;48.036;15.780;2023-02-26T02:54:15;2.00;;;1.90;;
29242;SDS011;21110;48.036;15.780;2023-02-26T02:56:53;2.08;;;1.98;;
29242;SDS011;21110;48.036;15.780;2023-02-26T02:59:44;2.10;;;2.00;;
29242;SDS011;21110;48.036;15.780;2023-02-26T03:02:25;2.20;;;2.10;;
29242;SDS011;21110;48.036;15.780;2023-02-26T03:04:52;3.20;;;2.20;;
29242;SDS011;21110;48.036;15.780;2023-02-26T03:07:18;2.10;;;2.00;;
29242;SDS011;21110;48.036;15.780;2023-02-26T03:09:44;2.20;;;2.10;;
29242;SDS011;21110;48.036;15.780;2023-02-26T03:12:11;2.75;;;1.98;;
29242;SDS011;21110;48.036;15.780;2023-02-26T03:14:36;2.95;;;2.10;;
29242;SDS011;21110;48.036;15.780;2023-02-26T03:17:09;2.00;;;1.90;;
29242;SDS011;21110;48.036;15.780;2023-02-26T03:22:17;2.00;;;1.90;;
29242;SDS011;21110;48.036;15.780;2023-02-26T03:24:58;3.03;;;1.90;;
29242;SDS011;21110;48.036;15.780;2023-02-26T03:30:04;1.88;;;1.77;;
29242;SDS011;21110;48.036;15.780;2023-02-26T03:32:48;1.90;;;1.80;;
29242;SDS011;21110;48.036;15.780;2023-02-26T03:35:17;1.90;;;1.80;;
29242;SDS011;21110;48.036;15.780;2023-02-26T03:37:51;1.70;;;1.70;;
29242;SDS011;21110;48.036;15.780;2023-02-26T03:40:23;1.65;;;1.60;;
29242;SDS011;21110;48.036;15.780;2023-02-26T03:45:53;1.90;;;1.80;;
29242;SDS011;21110;48.036;15.780;2023-02-26T03:48:23;1.90;;;1.80;;
29242;SDS011;21110;48.036;15.780;2023-02-26T03:50:52;1.80;;;1.70;;
29242;SDS011;21110;48.036;15.780;2023-02-26T03:53:23;1.80;;;1.70;;
29242;SDS011;21110;48.036;15.780;2023-02-26T03:55:54;1.80;;;1.70;;
29242;SDS011;21110;48.036;15.780;2023-02-26T03:58:27;1.90;;;1.80;;
29242;SDS011;21110;48.036;15.780;2023-02-26T04:00:56;2.85;;;1.80;;
29242;SDS011;21110;48.036;15.780;2023-02-26T04:03:29;2.45;;;1.70;;
29242;SDS011;21110;48.036;15.780;2023-02-26T04:06:01;1.98;;;1.88;;
29242;SDS011;21110;48.036;15.780;2023-02-26T04:08:27;2.00;;;1.90;;
29242;SDS011;21110;48.036;15.780;2023-02-26T04:10:58;9.93;;;1.70;;
29242;SDS011;21110;48.036;15.780;2023-02-26T04:13:28;5.40;;;1.83;;
29242;SDS011;21110;48.036;15.780;2023-02-26T04:15:54;3.33;;;1.67;;
29242;SDS011;21110;48.036;15.780;2023-02-26T04:18:19;2.50;;;1.60;;
29242;SDS011;21110;48.036;15.780;2023-02-26T04:20:45;2.75;;;1.60;;
29242;SDS011;21110;48.036;15.780;2023-02-26T04:23:11;3.17;;;1.60;;
29242;SDS011;21110;48.036;15.780;2023-02-26T04:25:36;2.50;;;1.55;;
29242;SDS011;21110;48.036;15.780;2023-02-26T04:28:02;3.25;;;1.73;;
29242;SDS011;21110;48.036;15.780;2023-02-26T04:30:28;1.60;;;1.50;;
29242;SDS011;21110;48.036;15.780;2023-02-26T04:32:54;1.73;;;1.63;;
29242;SDS011;21110;48.036;15.780;2023-02-26T04:35:22;4.32;;;1.58;;
29242;SDS011;21110;48.036;15.780;2023-02-26T04:37:48;3.65;;;1.60;;
29242;SDS011;21110;48.036;15.780;2023-02-26T04:40:14;1.70;;;1.60;;
29242;SDS011;21110;48.036;15.780;2023-02-26T04:42:39;1.77;;;1.58;;
29242;SDS011;21110;48.036;15.780;2023-02-26T04:45:05;1.50;;;1.40;;
29242;SDS011;21110;48.036;15.780;2023-02-26T04:47:32;1.52;;;1.45;;
29242;SDS011;21110;48.036;15.780;2023-02-26T04:49:57;1.50;;;1.50;;
29242;SDS011;21110;48.036;15.780;2023-02-26T04:52:23;1.77;;;1.67;;
29242;SDS011;21110;48.036;15.780;2023-02-26T04:54:48;1.40;;;1.40;;
29242;SDS011;21110;48.036;15.780;2023-02-26T04:57:14;1.70;;;1.60;;
29242;SDS011;21110;48.036;15.780;2023-02-26T04:59:40;1.50;;;1.50;;
29242;SDS011;21110;48.036;15.780;2023-02-26T05:02:06;1.60;;;1.50;;
29242;SDS011;21110;48.036;15.780;2023-02-26T05:04:31;1.65;;;1.55;;
29242;SDS011;21110;48.036;15.780;2023-02-26T05:06:57;1.90;;;1.70;;
29242;SDS011;21110;48.036;15.780;2023-02-26T05:09:23;1.63;;;1.52;;
29242;SDS011;21110;48.036;15.780;2023-02-26T05:11:48;1.50;;;1.50;;
29242;SDS011;21110;48.036;15.780;2023-02-26T05:14:14;1.70;;;1.60;;
29242;SDS011;21110;48.036;15.780;2023-02-26T05:16:40;1.73;;;1.63;;
29242;SDS011;21110;48.036;15.780;2023-02-26T05:19:06;3.05;;;1.90;;
29242;SDS011;21110;48.036;15.780;2023-02-26T05:21:31;2.00;;;1.90;;
29242;SDS011;21110;48.036;15.780;2023-02-26T05:23:57;2.83;;;2.10;;
29242;SDS011;21110;48.036;15.780;2023-02-26T05:26:23;2.10;;;2.00;;
29242;SDS011;21110;48.036;15.780;2023-02-26T05:28:49;2.00;;;1.90;;
29242;SDS011;21110;48.036;15.780;2023-02-26T05:31:14;2.15;;;1.70;;
29242;SDS011;21110;48.036;15.780;2023-02-26T05:33:40;1.67;;;1.58;;
29242;SDS011;21110;48.036;15.780;2023-02-26T05:36:07;1.80;;;1.70;;
29242;SDS011;21110;48.036;15.780;2023-02-26T05:38:33;2.10;;;1.90;;
29242;SDS011;21110;48.036;15.780;2023-02-26T05:40:59;3.53;;;1.83;;
29242;SDS011;21110;48.036;15.780;2023-02-26T05:43:25;6.80;;;1.80;;
29242;SDS011;21110;48.036;15.780;2023-02-26T05:45:52;2.97;;;1.90;;
29242;SDS011;21110;48.036;15.780;2023-02-26T05:48:19;4.20;;;3.40;;
29242;SDS011;21110;48.036;15.780;2023-02-26T05:50:45;3.45;;;3.15;;
29242;SDS011;21110;48.036;15.780;2023-02-26T05:53:12;8.23;;;2.67;;
29242;SDS011;21110;48.036;15.780;2023-02-26T05:55:38;3.22;;;2.33;;
29242;SDS011;21110;48.036;15.780;2023-02-26T05:58:03;2.50;;;2.40;;
29242;SDS011;21110;48.036;15.780;2023-02-26T06:00:29;2.78;;;2.20;;
29242;SDS011;21110;48.036;15.780;2023-02-26T06:02:54;3.42;;;2.17;;
29242;SDS011;21110;48.036;15.780;2023-02-26T06:05:20;2.90;;;2.70;;
29242;SDS011;21110;48.036;15.780;2023-02-26T06:07:46;3.22;;;2.97;;
29242;SDS011;21110;48.036;15.780;2023-02-26T06:10:12;3.42;;;3.22;;
29242;SDS011;21110;48.036;15.780;2023-02-26T06:12:37;3.22;;;2.92;;
29242;SDS011;21110;48.036;15.780;2023-02-26T06:15:04;3.55;;;3.25;;
29242;SDS011;21110;48.036;15.780;2023-02-26T06:17:31;2.70;;;2.50;;
29242;SDS011;21110;48.036;15.780;2023-02-26T06:19:57;3.38;;;2.97;;
29242;SDS011;21110;48.036;15.780;2023-02-26T06:22:23;28.95;;;3.10;;
29242;SDS011;21110;48.036;15.780;2023-02-26T06:24:49;5.78;;;2.70;;
29242;SDS011;21110;48.036;15.780;2023-02-26T06:27:15;3.70;;;2.60;;
29242;SDS011;21110;48.036;15.780;2023-02-26T06:29:40;6.13;;;2.40;;
29242;SDS011;21110;48.036;15.780;2023-02-26T06:34:38;3.05;;;2.30;;
29242;SDS011;21110;48.036;15.780;2023-02-26T06:37:04;6.28;;;2.30;;
29242;SDS011;21110;48.036;15.780;2023-02-26T06:39:30;5.43;;;1.98;;
29242;SDS011;21110;48.036;15.780;2023-02-26T06:41:56;5.50;;;2.10;;
29242;SDS011;21110;48.036;15.780;2023-02-26T06:44:21;2.28;;;2.10;;
29242;SDS011;21110;48.036;15.780;2023-02-26T06:46:47;2.40;;;2.30;;
29242;SDS011;21110;48.036;15.780;2023-02-26T06:49:12;4.13;;;2.13;;
29242;SDS011;21110;48.036;15.780;2023-02-26T06:51:38;7.95;;;2.40;;
29242;SDS011;21110;48.036;15.780;2023-02-26T06:54:04;9.85;;;3.10;;
29242;SDS011;21110;48.036;15.780;2023-02-26T06:56:30;4.88;;;3.40;;
29242;SDS011;21110;48.036;15.780;2023-02-26T06:58:55;5.47;;;5.07;;
29242;SDS011;21110;48.036;15.780;2023-02-26T07:01:21;6.38;;;5.75;;
29242;SDS011;21110;48.036;15.780;2023-02-26T07:03:48;7.95;;;5.57;;
29242;SDS011;21110;48.036;15.780;2023-02-26T07:06:14;5.70;;;5.20;;
29242;SDS011;21110;48.036;15.780;2023-02-26T07:08:40;5.22;;;4.82;;
29242;SDS011;21110;48.036;15.780;2023-02-26T07:11:06;4.63;;;4.22;;
29242;SDS011;21110;48.036;15.780;2023-02-26T07:13:34;6.32;;;3.75;;
29242;SDS011;21110;48.036;15.780;2023-02-26T07:16:05;3.95;;;3.65;;
29242;SDS011;21110;48.036;15.780;2023-02-26T07:18:35;4.13;;;3.72;;
29242;SDS011;21110;48.036;15.780;2023-02-26T07:21:01;14.00;;;3.78;;
29242;SDS011;21110;48.036;15.780;2023-02-26T07:23:28;6.97;;;4.20;;
29242;SDS011;21110;48.036;15.780;2023-02-26T07:25:54;6.20;;;3.63;;
29242;SDS011;21110;48.036;15.780;2023-02-26T07:28:20;4.53;;;3.67;;
29242;SDS011;21110;48.036;15.780;2023-02-26T07:30:46;3.95;;;3.55;;
29242;SDS011;21110;48.036;15.780;2023-02-26T07:33:12;3.25;;;3.03;;
29242;SDS011;21110;48.036;15.780;2023-02-26T07:35:38;3.20;;;2.83;;
29242;SDS011;21110;48.036;15.780;2023-02-26T07:38:03;3.95;;;3.00;;
29242;SDS011;21110;48.036;15.780;2023-02-26T07:40:29;3.80;;;3.10;;
29242;SDS011;21110;48.036;15.780;2023-02-26T07:42:55;17.85;;;2.78;;
29242;SDS011;21110;48.036;15.780;2023-02-26T07:45:21;6.18;;;2.38;;
29242;SDS011;21110;48.036;15.780;2023-02-26T07:47:50;3.63;;;2.20;;
29242;SDS011;21110;48.036;15.780;2023-02-26T07:50:16;3.20;;;2.40;;
29242;SDS011;21110;48.036;15.780;2023-02-26T07:52:43;5.28;;;2.45;;
29242;SDS011;21110;48.036;15.780;2023-02-26T07:55:10;9.88;;;2.45;;
29242;SDS011;21110;48.036;15.780;2023-02-26T07:57:36;9.13;;;2.50;;
29242;SDS011;21110;48.036;15.780;2023-02-26T08:00:02;6.55;;;2.25;;
29242;SDS011;21110;48.036;15.780;2023-02-26T08:02:29;8.00;;;2.33;;
29242;SDS011;21110;48.036;15.780;2023-02-26T08:04:54;9.00;;;2.28;;
29242;SDS011;21110;48.036;15.780;2023-02-26T08:07:21;13.15;;;2.50;;
29242;SDS011;21110;48.036;15.780;2023-02-26T08:09:46;8.65;;;2.40;;
29242;SDS011;21110;48.036;15.780;2023-02-26T08:12:12;13.85;;;2.58;;
29242;SDS011;21110;48.036;15.780;2023-02-26T08:14:38;14.43;;;2.50;;
29242;SDS011;21110;48.036;15.780;2023-02-26T08:17:05;7.40;;;2.45;;
29242;SDS011;21110;48.036;15.780;2023-02-26T08:19:32;11.35;;;2.40;;
29242;SDS011;21110;48.036;15.780;2023-02-26T08:22:16;10.93;;;2.40;;
29242;SDS011;21110;48.036;15.780;2023-02-26T08:24:42;10.35;;;2.60;;
29242;SDS011;21110;48.036;15.780;2023-02-26T08:27:07;13.32;;;2.40;;
29242;SDS011;21110;48.036;15.780;2023-02-26T08:29:36;11.13;;;2.58;;
29242;SDS011;21110;48.036;15.780;2023-02-26T08:32:01;13.48;;;2.40;;
29242;SDS011;21110;48.036;15.780;2023-02-26T08:34:27;11.57;;;2.53;;
29242;SDS011;21110;48.036;15.780;2023-02-26T08:36:53;13.13;;;2.70;;
29242;SDS011;21110;48.036;15.780;2023-02-26T08:39:18;18.38;;;2.60;;
29242;SDS011;21110;48.036;15.780;2023-02-26T08:41:44;13.10;;;2.60;;
29242;SDS011;21110;48.036;15.780;2023-02-26T08:44:10;14.15;;;2.80;;
29242;SDS011;21110;48.036;15.780;2023-02-26T08:46:35;11.65;;;2.78;;
29242;SDS011;21110;48.036;15.780;2023-02-26T08:49:01;14.60;;;2.67;;
29242;SDS011;21110;48.036;15.780;2023-02-26T08:51:27;12.75;;;3.05;;
29242;SDS011;21110;48.036;15.780;2023-02-26T08:53:53;11.32;;;2.60;;
29242;SDS011;21110;48.036;15.780;2023-02-26T08:56:19;13.98;;;2.38;;
29242;SDS011;21110;48.036;15.780;2023-02-26T08:58:44;8.05;;;2.47;;
29242;SDS011;21110;48.036;15.780;2023-02-26T09:01:10;9.45;;;2.33;;
29242;SDS011;21110;48.036;15.780;2023-02-26T09:03:35;8.63;;;2.50;;
29242;SDS011;21110;48.036;15.780;2023-02-26T09:06:01;11.73;;;2.45;;
29242;SDS011;21110;48.036;15.780;2023-02-26T09:08:29;8.88;;;2.47;;
29242;SDS011;21110;48.036;15.780;2023-02-26T09:10:58;9.23;;;2.30;;
29242;SDS011;21110;48.036;15.780;2023-02-26T09:13:28;6.72;;;2.35;;
29242;SDS011;21110;48.036;15.780;2023-02-26T09:15:54;11.52;;;2.60;;
29242;SDS011;21110;48.036;15.780;2023-02-26T09:18:20;8.55;;;2.30;;
29242;SDS011;21110;48.036;15.780;2023-02-26T09:20:45;6.68;;;2.40;;
29242;SDS011;21110;48.036;15.780;2023-02-26T09:23:11;15.45;;;2.33;;
29242;SDS011;21110;48.036;15.780;2023-02-26T09:25:37;21.27;;;2.30;;
29242;SDS011;21110;48.036;15.780;2023-02-26T09:28:03;19.85;;;2.90;;
29242;SDS011;21110;48.036;15.780;2023-02-26T09:30:29;15.55;;;2.65;;
29242;SDS011;21110;48.036;15.780;2023-02-26T09:32:55;9.15;;;2.40;;
29242;SDS011;21110;48.036;15.780;2023-02-26T09:35:21;7.68;;;2.30;;
29242;SDS011;21110;48.036;15.780;2023-02-26T09:37:46;12.20;;;2.30;;
29242;SDS011;21110;48.036;15.780;2023-02-26T09:40:35;6.75;;;2.13;;
29242;SDS011;21110;48.036;15.780;2023-02-26T09:45:32;9.07;;;2.13;;
29242;SDS011;21110;48.036;15.780;2023-02-26T09:50:39;14.70;;;2.70;;
29242;SDS011;21110;48.036;15.780;2023-02-26T09:53:19;7.90;;;2.33;;
29242;SDS011;21110;48.036;15.780;2023-02-26T09:55:47;5.82;;;2.42;;
29242;SDS011;21110;48.036;15.780;2023-02-26T10:06:34;7.22;;;2.42;;
29242;SDS011;21110;48.036;15.780;2023-02-26T10:12:08;6.20;;;2.50;;
29242;SDS011;21110;48.036;15.780;2023-02-26T10:17:22;6.78;;;2.40;;
29242;SDS011;21110;48.036;15.780;2023-02-26T10:20:05;5.85;;;2.20;;
29242;SDS011;21110;48.036;15.780;2023-02-26T10:22:44;5.88;;;2.30;;
29242;SDS011;21110;48.036;15.780;2023-02-26T10:25:37;4.13;;;2.50;;
29242;SDS011;21110;48.036;15.780;2023-02-26T10:28:16;5.35;;;2.30;;
29242;SDS011;21110;48.036;15.780;2023-02-26T10:30:51;7.60;;;2.22;;
29242;SDS011;21110;48.036;15.780;2023-02-26T10:33:29;5.22;;;2.33;;
29242;SDS011;21110;48.036;15.780;2023-02-26T10:35:57;5.68;;;2.45;;
29242;SDS011;21110;48.036;15.780;2023-02-26T10:38:33;4.75;;;2.10;;
29242;SDS011;21110;48.036;15.780;2023-02-26T10:41:11;7.90;;;2.30;;
29242;SDS011;21110;48.036;15.780;2023-02-26T10:43:41;4.07;;;2.72;;
29242;SDS011;21110;48.036;15.780;2023-02-26T10:51:50;3.83;;;2.10;;
29242;SDS011;21110;48.036;15.780;2023-02-26T10:57:29;2.22;;;2.03;;
29242;SDS011;21110;48.036;15.780;2023-02-26T10:59:59;6.45;;;2.30;;
29242;SDS011;21110;48.036;15.780;2023-02-26T11:02:36;3.58;;;2.30;;
29242;SDS011;21110;48.036;15.780;2023-02-26T11:05:24;2.95;;;1.92;;
29242;SDS011;21110;48.036;15.780;2023-02-26T11:08:00;4.20;;;2.10;;
29242;SDS011;21110;48.036;15.780;2023-02-26T11:10:40;5.00;;;2.17;;
29242;SDS011;21110;48.036;15.780;2023-02-26T11:13:11;3.42;;;2.13;;
29242;SDS011;21110;48.036;15.780;2023-02-26T11:15:37;2.90;;;2.00;;
29242;SDS011;21110;48.036;15.780;2023-02-26T11:18:03;2.90;;;1.95;;
29242;SDS011;21110;48.036;15.780;2023-02-26T11:20:36;5.03;;;2.20;;
29242;SDS011;21110;48.036;15.780;2023-02-26T11:23:06;4.75;;;2.00;;
29242;SDS011;21110;48.036;15.780;2023-02-26T11:25:36;3.28;;;2.08;;
29242;SDS011;21110;48.036;15.780;2023-02-26T11:28:04;2.95;;;1.92;;
29242;SDS011;21110;48.036;15.780;2023-02-26T11:30:42;2.38;;;2.15;;
29242;SDS011;21110;48.036;15.780;2023-02-26T11:33:16;5.47;;;2.20;;
29242;SDS011;21110;48.036;15.780;2023-02-26T11:35:47;5.70;;;2.30;;
29242;SDS011;21110;48.036;15.780;2023-02-26T11:38:15;3.80;;;2.40;;
29242;SDS011;21110;48.036;15.780;2023-02-26T11:40:48;3.22;;;1.95;;
29242;SDS011;21110;48.036;15.780;2023-02-26T11:43:17;3.42;;;2.00;;
29242;SDS011;21110;48.036;15.780;2023-02-26T11:45:46;3.20;;;1.90;;
29242;SDS011;21110;48.036;15.780;2023-02-26T11:48:21;2.58;;;2.00;;
29242;SDS011;21110;48.036;15.780;2023-02-26T11:50:51;2.95;;;1.90;;
29242;SDS011;21110;48.036;15.780;2023-02-26T11:56:31;5.80;;;1.90;;
29242;SDS011;21110;48.036;15.780;2023-02-26T12:01:48;3.75;;;2.20;;
29242;SDS011;21110;48.036;15.780;2023-02-26T12:04:18;4.13;;;2.28;;
29242;SDS011;21110;48.036;15.780;2023-02-26T12:06:46;2.30;;;2.10;;
29242;SDS011;21110;48.036;15.780;2023-02-26T12:09:15;4.95;;;2.22;;
29242;SDS011;21110;48.036;15.780;2023-02-26T12:17:28;3.20;;;2.00;;
29242;SDS011;21110;48.036;15.780;2023-02-26T12:43:54;29.92;;;3.00;;
29242;SDS011;21110;48.036;15.780;2023-02-26T12:46:29;13.07;;;2.80;;
29242;SDS011;21110;48.036;15.780;2023-02-26T13:14:44;7.63;;;2.72;;
29242;SDS011;21110;48.036;15.780;2023-02-26T13:19:48;8.00;;;2.65;;
29242;SDS011;21110;48.036;15.780;2023-02-26T13:22:25;6.85;;;2.50;;
29242;SDS011;21110;48.036;15.780;2023-02-26T13:27:29;9.60;;;2.70;;
29242;SDS011;21110;48.036;15.780;2023-02-26T13:30:05;6.25;;;2.38;;
29242;SDS011;21110;48.036;15.780;2023-02-26T13:32:41;3.72;;;2.53;;
29242;SDS011;21110;48.036;15.780;2023-02-26T13:49:16;11.43;;;2.33;;
29242;SDS011;21110;48.036;15.780;2023-02-26T13:51:51;3.70;;;2.30;;
29242;SDS011;21110;48.036;15.780;2023-02-26T14:01:47;5.38;;;2.50;;
29242;SDS011;21110;48.036;15.780;2023-02-26T14:22:22;13.77;;;3.42;;
29242;SDS011;21110;48.036;15.780;2023-02-26T14:27:22;18.98;;;4.05;;
29242;SDS011;21110;48.036;15.780;2023-02-26T14:32:52;10.70;;;3.60;;
29242;SDS011;21110;48.036;15.780;2023-02-26T14:35:31;12.60;;;3.60;;
29242;SDS011;21110;48.036;15.780;2023-02-26T14:37:58;17.50;;;4.20;;
29242;SDS011;21110;48.036;15.780;2023-02-26T14:41:00;13.57;;;3.55;;
29242;SDS011;21110;48.036;15.780;2023-02-26T14:43:36;7.88;;;3.28;;
29242;SDS011;21110;48.036;15.780;2023-02-26T14:46:04;8.68;;;3.60;;
29242;SDS011;21110;48.036;15.780;2023-02-26T14:48:30;11.23;;;3.40;;
29242;SDS011;21110;48.036;15.780;2023-02-26T15:01:46;10.98;;;3.47;;
29242;SDS011;21110;48.036;15.780;2023-02-26T15:04:30;8.82;;;3.22;;
29242;SDS011;21110;48.036;15.780;2023-02-26T15:10:33;9.10;;;3.45;;
29242;SDS011;21110;48.036;15.780;2023-02-26T15:18:35;9.98;;;3.60;;
29242;SDS011;21110;48.036;15.780;2023-02-26T15:21:24;8.18;;;3.25;;
29242;SDS011;21110;48.036;15.780;2023-02-26T15:23:57;9.13;;;3.22;;
29242;SDS011;21110;48.036;15.780;2023-02-26T15:26:25;6.85;;;3.28;;
29242;SDS011;21110;48.036;15.780;2023-02-26T15:28:56;8.27;;;3.20;;
29242;SDS011;21110;48.036;15.780;2023-02-26T15:31:28;7.93;;;2.97;;
29242;SDS011;21110;48.036;15.780;2023-02-26T15:33:59;9.15;;;3.35;;
29242;SDS011;21110;48.036;15.780;2023-02-26T15:36:27;6.85;;;3.10;;
29242;SDS011;21110;48.036;15.780;2023-02-26T15:38:54;7.68;;;3.33;;
29242;SDS011;21110;48.036;15.780;2023-02-26T15:41:22;6.03;;;2.72;;
29242;SDS011;21110;48.036;15.780;2023-02-26T15:43:52;6.55;;;3.28;;
29242;SDS011;21110;48.036;15.780;2023-02-26T15:46:26;6.90;;;3.10;;
29242;SDS011;21110;48.036;15.780;2023-02-26T15:48:57;6.28;;;3.00;;
29242;SDS011;21110;48.036;15.780;2023-02-26T15:51:31;9.85;;;3.40;;
29242;SDS011;21110;48.036;15.780;2023-02-26T15:53:57;5.47;;;3.20;;
29242;SDS011;21110;48.036;15.780;2023-02-26T15:56:27;4.97;;;3.05;;
29242;SDS011;21110;48.036;15.780;2023-02-26T15:59:03;6.90;;;2.88;;
29242;SDS011;21110;48.036;15.780;2023-02-26T16:01:51;4.60;;;3.10;;
29242;SDS011;21110;48.036;15.780;2023-02-26T16:04:19;6.10;;;3.15;;
29242;SDS011;21110;48.036;15.780;2023-02-26T16:06:47;5.65;;;3.20;;
29242;SDS011;21110;48.036;15.780;2023-02-26T16:09:29;5.32;;;2.90;;
29242;SDS011;21110;48.036;15.780;2023-02-26T16:12:00;4.72;;;2.70;;
29242;SDS011;21110;48.036;15.780;2023-02-26T16:14:37;4.28;;;3.00;;
29242;SDS011;21110;48.036;15.780;2023-02-26T16:17:05;4.43;;;2.90;;
29242;SDS011;21110;48.036;15.780;2023-02-26T16:24:45;6.45;;;3.10;;
29242;SDS011;21110;48.036;15.780;2023-02-26T16:27:15;4.72;;;3.13;;
29242;SDS011;21110;48.036;15.780;2023-02-26T16:29:47;3.75;;;3.20;;
29242;SDS011;21110;48.036;15.780;2023-02-26T16:32:16;7.05;;;3.40;;
29242;SDS011;21110;48.036;15.780;2023-02-26T16:34:45;5.50;;;3.08;;
29242;SDS011;21110;48.036;15.780;2023-02-26T16:37:19;4.95;;;2.92;;
29242;SDS011;21110;48.036;15.780;2023-02-26T16:39:46;4.90;;;2.85;;
29242;SDS011;21110;48.036;15.780;2023-02-26T16:47:59;4.97;;;2.92;;
29242;SDS011;21110;48.036;15.780;2023-02-26T16:50:27;6.47;;;3.20;;
29242;SDS011;21110;48.036;15.780;2023-02-26T16:55:39;8.75;;;3.05;;
29242;SDS011;21110;48.036;15.780;2023-02-26T16:58:09;9.52;;;2.70;;
29242;SDS011;21110;48.036;15.780;2023-02-26T17:00:38;4.80;;;2.58;;
29242;SDS011;21110;48.036;15.780;2023-02-26T17:03:11;7.80;;;2.95;;
29242;SDS011;21110;48.036;15.780;2023-02-26T17:08:34;4.45;;;2.65;;
29242;SDS011;21110;48.036;15.780;2023-02-26T17:11:07;5.53;;;2.60;;
29242;SDS011;21110;48.036;15.780;2023-02-26T17:13:42;8.73;;;2.58;;
29242;SDS011;21110;48.036;15.780;2023-02-26T17:16:08;4.53;;;2.72;;
29242;SDS011;21110;48.036;15.780;2023-02-26T17:18:36;6.28;;;2.47;;
29242;SDS011;21110;48.036;15.780;2023-02-26T17:21:02;6.25;;;2.58;;
29242;SDS011;21110;48.036;15.780;2023-02-26T17:23:29;4.90;;;2.90;;
29242;SDS011;21110;48.036;15.780;2023-02-26T17:25:57;6.68;;;2.70;;
29242;SDS011;21110;48.036;15.780;2023-02-26T17:28:26;7.90;;;2.38;;
29242;SDS011;21110;48.036;15.780;2023-02-26T17:30:55;5.38;;;2.55;;
29242;SDS011;21110;48.036;15.780;2023-02-26T17:33:22;6.32;;;2.47;;
29242;SDS011;21110;48.036;15.780;2023-02-26T17:35:47;6.47;;;2.60;;
29242;SDS011;21110;48.036;15.780;2023-02-26T17:38:14;5.57;;;2.55;;
29242;SDS011;21110;48.036;15.780;2023-02-26T17:40:41;6.40;;;2.40;;
29242;SDS011;21110;48.036;15.780;2023-02-26T17:43:09;7.68;;;2.40;;
29242;SDS011;21110;48.036;15.780;2023-02-26T17:45:35;7.50;;;2.33;;
29242;SDS011;21110;48.036;15.780;2023-02-26T17:48:04;7.60;;;2.50;;
29242;SDS011;21110;48.036;15.780;2023-02-26T17:53:15;6.93;;;2.25;;
29242;SDS011;21110;48.036;15.780;2023-02-26T17:55:43;6.13;;;2.30;;
29242;SDS011;21110;48.036;15.780;2023-02-26T17:58:14;6.88;;;2.45;;
29242;SDS011;21110;48.036;15.780;2023-02-26T18:00:43;7.47;;;3.00;;
29242;SDS011;21110;48.036;15.780;2023-02-26T18:03:13;9.20;;;3.35;;
29242;SDS011;21110;48.036;15.780;2023-02-26T18:05:40;12.82;;;3.45;;
29242;SDS011;21110;48.036;15.780;2023-02-26T18:08:15;10.98;;;3.80;;
29242;SDS011;21110;48.036;15.780;2023-02-26T18:10:46;8.10;;;3.70;;
29242;SDS011;21110;48.036;15.780;2023-02-26T18:13:12;7.90;;;3.53;;
29242;SDS011;21110;48.036;15.780;2023-02-26T18:15:37;11.63;;;3.75;;
29242;SDS011;21110;48.036;15.780;2023-02-26T18:18:03;14.18;;;4.00;;
29242;SDS011;21110;48.036;15.780;2023-02-26T18:20:30;11.88;;;4.35;;
29242;SDS011;21110;48.036;15.780;2023-02-26T18:22:56;10.07;;;4.35;;
29242;SDS011;21110;48.036;15.780;2023-02-26T18:25:22;20.10;;;6.32;;
29242;SDS011;21110;48.036;15.780;2023-02-26T18:27:51;29.80;;;7.68;;
29242;SDS011;21110;48.036;15.780;2023-02-26T18:30:22;25.65;;;7.22;;
29242;SDS011;21110;48.036;15.780;2023-02-26T18:32:50;27.67;;;7.97;;